sensor_id;sensor_type;location;lat;lon;timestamp;P1;durP1;ratioP1;P2;durP2;ratioP2
54923;SDS011;40825;52.270;20.984;2023-07-20T00:01:44;4.50;;;1.20;;
54923;SDS011;40825;52.270;20.984;2023-07-20T00:04:11;4.60;;;1.30;;
54923;SDS011;40825;52.270;20.984;2023-07-20T00:06:37;3.30;;;1.50;;
54923;SDS011;40825;52.270;20.984;2023-07-20T00:09:08;3.80;;;1.50;;
54923;SDS011;40825;52.270;20.984;2023-07-20T00:11:37;3.40;;;1.30;;
54923;SDS011;40825;52.270;20.984;2023-07-20T00:14:04;4.60;;;1.60;;
54923;SDS011;40825;52.270;20.984;2023-07-20T00:16:30;4.60;;;1.40;;
54923;SDS011;40825;52.270;20.984;2023-07-20T00:18:55;4.20;;;1.80;;
54923;SDS011;40825;52.270;20.984;2023-07-20T00:21:21;4.90;;;2.00;;
54923;SDS011;40825;52.270;20.984;2023-07-20T00:23:46;3.90;;;1.40;;
54923;SDS011;40825;52.270;20.984;2023-07-20T00:26:12;6.70;;;1.80;;
54923;SDS011;40825;52.270;20.984;2023-07-20T00:28:37;7.40;;;3.10;;
54923;SDS011;40825;52.270;20.984;2023-07-20T00:31:04;7.10;;;2.60;;
54923;SDS011;40825;52.270;20.984;2023-07-20T00:33:29;6.10;;;2.20;;
54923;SDS011;40825;52.270;20.984;2023-07-20T00:35:55;6.70;;;3.00;;
54923;SDS011;40825;52.270;20.984;2023-07-20T00:38:21;9.30;;;3.80;;
54923;SDS011;40825;52.270;20.984;2023-07-20T00:40:46;4.50;;;1.50;;
54923;SDS011;40825;52.270;20.984;2023-07-20T00:43:11;7.80;;;2.10;;
54923;SDS011;40825;52.270;20.984;2023-07-20T00:45:37;6.40;;;2.50;;
54923;SDS011;40825;52.270;20.984;2023-07-20T00:48:04;4.90;;;1.70;;
54923;SDS011;40825;52.270;20.984;2023-07-20T00:50:30;5.10;;;1.80;;
54923;SDS011;40825;52.270;20.984;2023-07-20T00:52:57;7.80;;;2.20;;
54923;SDS011;40825;52.270;20.984;2023-07-20T00:55:23;7.00;;;2.20;;
54923;SDS011;40825;52.270;20.984;2023-07-20T00:57:50;5.20;;;2.10;;
54923;SDS011;40825;52.270;20.984;2023-07-20T01:00:16;5.50;;;2.00;;
54923;SDS011;40825;52.270;20.984;2023-07-20T01:02:43;5.40;;;2.00;;
54923;SDS011;40825;52.270;20.984;2023-07-20T01:05:08;4.50;;;1.80;;
54923;SDS011;40825;52.270;20.984;2023-07-20T01:10:29;5.00;;;2.20;;
54923;SDS011;40825;52.270;20.984;2023-07-20T01:13:03;5.20;;;1.70;;
54923;SDS011;40825;52.270;20.984;2023-07-20T01:15:33;4.90;;;1.60;;
54923;SDS011;40825;52.270;20.984;2023-07-20T01:17:59;7.00;;;2.00;;
54923;SDS011;40825;52.270;20.984;2023-07-20T01:20:26;6.50;;;2.50;;
54923;SDS011;40825;52.270;20.984;2023-07-20T01:31:21;5.20;;;1.60;;
54923;SDS011;40825;52.270;20.984;2023-07-20T01:33:50;4.00;;;1.70;;
54923;SDS011;40825;52.270;20.984;2023-07-20T01:36:17;5.40;;;2.00;;
54923;SDS011;40825;52.270;20.984;2023-07-20T01:38:45;4.90;;;1.70;;
54923;SDS011;40825;52.270;20.984;2023-07-20T01:41:11;5.70;;;2.20;;
54923;SDS011;40825;52.270;20.984;2023-07-20T01:43:37;5.50;;;2.00;;
54923;SDS011;40825;52.270;20.984;2023-07-20T01:46:02;5.50;;;1.90;;
54923;SDS011;40825;52.270;20.984;2023-07-20T01:48:28;4.00;;;1.70;;
54923;SDS011;40825;52.270;20.984;2023-07-20T01:50:53;6.60;;;1.90;;
54923;SDS011;40825;52.270;20.984;2023-07-20T01:53:19;4.60;;;1.90;;
54923;SDS011;40825;52.270;20.984;2023-07-20T01:55:46;4.30;;;2.30;;
54923;SDS011;40825;52.270;20.984;2023-07-20T01:58:11;5.60;;;2.40;;
54923;SDS011;40825;52.270;20.984;2023-07-20T02:00:37;5.30;;;2.60;;
54923;SDS011;40825;52.270;20.984;2023-07-20T02:03:03;4.80;;;2.00;;
54923;SDS011;40825;52.270;20.984;2023-07-20T02:05:29;6.60;;;2.20;;
54923;SDS011;40825;52.270;20.984;2023-07-20T02:07:54;6.40;;;2.20;;
54923;SDS011;40825;52.270;20.984;2023-07-20T02:10:20;6.90;;;2.00;;
54923;SDS011;40825;52.270;20.984;2023-07-20T02:12:45;5.10;;;1.70;;
54923;SDS011;40825;52.270;20.984;2023-07-20T02:15:11;4.00;;;1.70;;
54923;SDS011;40825;52.270;20.984;2023-07-20T02:17:38;6.10;;;2.00;;
54923;SDS011;40825;52.270;20.984;2023-07-20T02:20:06;4.70;;;1.80;;
54923;SDS011;40825;52.270;20.984;2023-07-20T02:22:35;5.60;;;1.90;;
54923;SDS011;40825;52.270;20.984;2023-07-20T02:25:04;4.30;;;2.30;;
54923;SDS011;40825;52.270;20.984;2023-07-20T02:27:30;5.70;;;2.10;;
54923;SDS011;40825;52.270;20.984;2023-07-20T02:29:56;4.70;;;1.60;;
54923;SDS011;40825;52.270;20.984;2023-07-20T02:32:22;5.90;;;2.20;;
54923;SDS011;40825;52.270;20.984;2023-07-20T02:34:47;4.80;;;1.70;;
54923;SDS011;40825;52.270;20.984;2023-07-20T02:37:13;4.40;;;1.80;;
54923;SDS011;40825;52.270;20.984;2023-07-20T02:39:39;4.80;;;2.10;;
54923;SDS011;40825;52.270;20.984;2023-07-20T02:42:05;4.20;;;1.70;;
54923;SDS011;40825;52.270;20.984;2023-07-20T02:44:31;4.20;;;1.80;;
54923;SDS011;40825;52.270;20.984;2023-07-20T02:46:56;4.80;;;1.80;;
54923;SDS011;40825;52.270;20.984;2023-07-20T02:49:22;5.70;;;2.50;;
54923;SDS011;40825;52.270;20.984;2023-07-20T02:51:47;4.30;;;1.70;;
54923;SDS011;40825;52.270;20.984;2023-07-20T02:54:13;6.00;;;1.60;;
54923;SDS011;40825;52.270;20.984;2023-07-20T02:56:38;5.50;;;2.10;;
54923;SDS011;40825;52.270;20.984;2023-07-20T02:59:04;5.90;;;1.80;;
54923;SDS011;40825;52.270;20.984;2023-07-20T03:01:29;5.60;;;2.00;;
54923;SDS011;40825;52.270;20.984;2023-07-20T03:03:55;5.70;;;2.40;;
54923;SDS011;40825;52.270;20.984;2023-07-20T03:06:21;4.30;;;1.80;;
54923;SDS011;40825;52.270;20.984;2023-07-20T03:08:47;4.30;;;1.80;;
54923;SDS011;40825;52.270;20.984;2023-07-20T03:11:14;4.50;;;1.80;;
54923;SDS011;40825;52.270;20.984;2023-07-20T03:13:40;3.80;;;1.50;;
54923;SDS011;40825;52.270;20.984;2023-07-20T03:16:08;6.40;;;2.40;;
54923;SDS011;40825;52.270;20.984;2023-07-20T03:18:39;5.20;;;1.50;;
54923;SDS011;40825;52.270;20.984;2023-07-20T03:21:05;4.40;;;1.80;;
54923;SDS011;40825;52.270;20.984;2023-07-20T03:23:33;7.10;;;2.10;;
54923;SDS011;40825;52.270;20.984;2023-07-20T03:25:58;4.60;;;1.90;;
54923;SDS011;40825;52.270;20.984;2023-07-20T03:28:25;4.40;;;2.00;;
54923;SDS011;40825;52.270;20.984;2023-07-20T03:30:54;5.20;;;1.80;;
54923;SDS011;40825;52.270;20.984;2023-07-20T03:33:27;5.90;;;1.90;;
54923;SDS011;40825;52.270;20.984;2023-07-20T03:35:54;5.70;;;2.20;;
54923;SDS011;40825;52.270;20.984;2023-07-20T03:38:21;5.30;;;2.30;;
54923;SDS011;40825;52.270;20.984;2023-07-20T03:40:50;7.10;;;2.20;;
54923;SDS011;40825;52.270;20.984;2023-07-20T03:43:17;5.70;;;2.00;;
54923;SDS011;40825;52.270;20.984;2023-07-20T03:45:43;7.10;;;2.30;;
54923;SDS011;40825;52.270;20.984;2023-07-20T03:48:08;5.80;;;2.30;;
54923;SDS011;40825;52.270;20.984;2023-07-20T03:50:34;7.60;;;2.30;;
54923;SDS011;40825;52.270;20.984;2023-07-20T03:53:00;8.00;;;2.80;;
54923;SDS011;40825;52.270;20.984;2023-07-20T03:55:26;5.10;;;2.40;;
54923;SDS011;40825;52.270;20.984;2023-07-20T03:57:56;9.30;;;3.00;;
54923;SDS011;40825;52.270;20.984;2023-07-20T04:00:38;7.50;;;3.10;;
54923;SDS011;40825;52.270;20.984;2023-07-20T04:03:35;6.20;;;2.60;;
54923;SDS011;40825;52.270;20.984;2023-07-20T04:06:22;9.00;;;2.70;;
54923;SDS011;40825;52.270;20.984;2023-07-20T04:08:48;5.80;;;2.50;;
54923;SDS011;40825;52.270;20.984;2023-07-20T04:11:13;6.50;;;2.80;;
54923;SDS011;40825;52.270;20.984;2023-07-20T04:13:38;10.40;;;3.10;;
54923;SDS011;40825;52.270;20.984;2023-07-20T04:16:04;5.80;;;3.00;;
54923;SDS011;40825;52.270;20.984;2023-07-20T04:18:30;10.30;;;2.70;;
54923;SDS011;40825;52.270;20.984;2023-07-20T04:20:55;10.40;;;3.80;;
54923;SDS011;40825;52.270;20.984;2023-07-20T04:23:20;7.80;;;3.00;;
54923;SDS011;40825;52.270;20.984;2023-07-20T04:25:46;8.40;;;3.30;;
54923;SDS011;40825;52.270;20.984;2023-07-20T04:28:12;7.70;;;3.80;;
54923;SDS011;40825;52.270;20.984;2023-07-20T04:30:38;8.20;;;3.30;;
54923;SDS011;40825;52.270;20.984;2023-07-20T04:33:05;7.10;;;3.40;;
54923;SDS011;40825;52.270;20.984;2023-07-20T04:35:45;8.10;;;3.50;;
54923;SDS011;40825;52.270;20.984;2023-07-20T04:43:33;8.50;;;4.30;;
54923;SDS011;40825;52.270;20.984;2023-07-20T04:45:59;7.40;;;3.70;;
54923;SDS011;40825;52.270;20.984;2023-07-20T04:48:24;6.60;;;3.30;;
54923;SDS011;40825;52.270;20.984;2023-07-20T04:50:49;9.00;;;3.90;;
54923;SDS011;40825;52.270;20.984;2023-07-20T04:53:15;6.80;;;3.60;;
54923;SDS011;40825;52.270;20.984;2023-07-20T04:55:40;8.40;;;3.80;;
54923;SDS011;40825;52.270;20.984;2023-07-20T05:30:35;7.30;;;3.40;;
54923;SDS011;40825;52.270;20.984;2023-07-20T05:33:10;6.60;;;3.90;;
54923;SDS011;40825;52.270;20.984;2023-07-20T05:35:37;8.70;;;3.50;;
54923;SDS011;40825;52.270;20.984;2023-07-20T05:38:03;9.00;;;4.50;;
54923;SDS011;40825;52.270;20.984;2023-07-20T05:40:30;8.00;;;3.80;;
54923;SDS011;40825;52.270;20.984;2023-07-20T05:42:56;8.50;;;4.10;;
54923;SDS011;40825;52.270;20.984;2023-07-20T05:45:22;8.70;;;4.80;;
54923;SDS011;40825;52.270;20.984;2023-07-20T05:47:48;8.30;;;4.20;;
54923;SDS011;40825;52.270;20.984;2023-07-20T05:50:14;10.20;;;5.00;;
54923;SDS011;40825;52.270;20.984;2023-07-20T05:52:40;9.20;;;4.60;;
54923;SDS011;40825;52.270;20.984;2023-07-20T05:55:06;8.70;;;4.80;;
54923;SDS011;40825;52.270;20.984;2023-07-20T05:57:32;8.00;;;4.30;;
54923;SDS011;40825;52.270;20.984;2023-07-20T05:59:58;11.10;;;4.40;;
54923;SDS011;40825;52.270;20.984;2023-07-20T06:02:24;11.00;;;4.40;;
54923;SDS011;40825;52.270;20.984;2023-07-20T06:04:57;9.30;;;4.50;;
54923;SDS011;40825;52.270;20.984;2023-07-20T06:07:37;8.90;;;4.10;;
54923;SDS011;40825;52.270;20.984;2023-07-20T06:10:04;8.10;;;4.10;;
54923;SDS011;40825;52.270;20.984;2023-07-20T06:12:31;8.10;;;4.30;;
54923;SDS011;40825;52.270;20.984;2023-07-20T06:14:58;8.60;;;4.00;;
54923;SDS011;40825;52.270;20.984;2023-07-20T06:17:27;9.10;;;4.90;;
54923;SDS011;40825;52.270;20.984;2023-07-20T06:19:53;9.00;;;4.80;;
54923;SDS011;40825;52.270;20.984;2023-07-20T06:22:18;10.60;;;4.80;;
54923;SDS011;40825;52.270;20.984;2023-07-20T06:24:47;9.30;;;4.80;;
54923;SDS011;40825;52.270;20.984;2023-07-20T06:27:12;8.60;;;4.50;;
54923;SDS011;40825;52.270;20.984;2023-07-20T06:29:38;8.20;;;5.10;;
54923;SDS011;40825;52.270;20.984;2023-07-20T06:32:08;7.90;;;4.00;;
54923;SDS011;40825;52.270;20.984;2023-07-20T06:34:34;7.40;;;4.00;;
54923;SDS011;40825;52.270;20.984;2023-07-20T06:37:03;9.50;;;4.30;;
54923;SDS011;40825;52.270;20.984;2023-07-20T06:39:30;9.30;;;3.80;;
54923;SDS011;40825;52.270;20.984;2023-07-20T06:41:55;9.10;;;3.90;;
54923;SDS011;40825;52.270;20.984;2023-07-20T06:44:21;8.50;;;4.00;;
54923;SDS011;40825;52.270;20.984;2023-07-20T06:46:47;10.30;;;4.50;;
54923;SDS011;40825;52.270;20.984;2023-07-20T06:49:24;10.90;;;5.50;;
54923;SDS011;40825;52.270;20.984;2023-07-20T06:51:51;9.00;;;4.00;;
54923;SDS011;40825;52.270;20.984;2023-07-20T06:54:17;8.00;;;4.10;;
54923;SDS011;40825;52.270;20.984;2023-07-20T06:56:42;7.70;;;4.20;;
54923;SDS011;40825;52.270;20.984;2023-07-20T06:59:08;6.60;;;3.60;;
54923;SDS011;40825;52.270;20.984;2023-07-20T07:01:34;9.00;;;3.80;;
54923;SDS011;40825;52.270;20.984;2023-07-20T07:03:59;8.50;;;4.10;;
54923;SDS011;40825;52.270;20.984;2023-07-20T07:06:25;7.70;;;4.10;;
54923;SDS011;40825;52.270;20.984;2023-07-20T07:08:53;7.20;;;3.80;;
54923;SDS011;40825;52.270;20.984;2023-07-20T07:11:20;8.30;;;4.00;;
54923;SDS011;40825;52.270;20.984;2023-07-20T07:13:46;8.20;;;4.10;;
54923;SDS011;40825;52.270;20.984;2023-07-20T07:16:14;8.30;;;3.80;;
54923;SDS011;40825;52.270;20.984;2023-07-20T07:18:47;9.20;;;4.00;;
54923;SDS011;40825;52.270;20.984;2023-07-20T07:21:13;7.10;;;3.60;;
54923;SDS011;40825;52.270;20.984;2023-07-20T07:23:39;7.20;;;3.70;;
54923;SDS011;40825;52.270;20.984;2023-07-20T07:26:05;7.50;;;3.60;;
54923;SDS011;40825;52.270;20.984;2023-07-20T07:28:30;8.80;;;3.80;;
54923;SDS011;40825;52.270;20.984;2023-07-20T07:30:57;10.50;;;3.80;;
54923;SDS011;40825;52.270;20.984;2023-07-20T07:33:23;9.10;;;4.00;;
54923;SDS011;40825;52.270;20.984;2023-07-20T07:35:49;6.10;;;4.10;;
54923;SDS011;40825;52.270;20.984;2023-07-20T07:38:18;8.40;;;3.90;;
54923;SDS011;40825;52.270;20.984;2023-07-20T07:40:45;9.00;;;4.00;;
54923;SDS011;40825;52.270;20.984;2023-07-20T07:43:11;7.30;;;4.20;;
54923;SDS011;40825;52.270;20.984;2023-07-20T07:45:39;7.80;;;4.50;;
54923;SDS011;40825;52.270;20.984;2023-07-20T07:48:05;7.40;;;4.10;;
54923;SDS011;40825;52.270;20.984;2023-07-20T07:50:32;7.00;;;3.30;;
54923;SDS011;40825;52.270;20.984;2023-07-20T07:52:58;8.70;;;3.20;;
54923;SDS011;40825;52.270;20.984;2023-07-20T07:55:24;7.00;;;4.30;;
54923;SDS011;40825;52.270;20.984;2023-07-20T07:57:52;7.80;;;4.20;;
54923;SDS011;40825;52.270;20.984;2023-07-20T08:00:18;7.80;;;3.80;;
54923;SDS011;40825;52.270;20.984;2023-07-20T08:02:44;7.30;;;3.20;;
54923;SDS011;40825;52.270;20.984;2023-07-20T08:05:13;8.80;;;3.40;;
54923;SDS011;40825;52.270;20.984;2023-07-20T08:07:39;7.80;;;4.00;;
54923;SDS011;40825;52.270;20.984;2023-07-20T08:10:05;7.80;;;3.40;;
54923;SDS011;40825;52.270;20.984;2023-07-20T08:12:31;7.50;;;3.50;;
54923;SDS011;40825;52.270;20.984;2023-07-20T08:14:57;6.00;;;3.10;;
54923;SDS011;40825;52.270;20.984;2023-07-20T08:17:22;7.20;;;3.60;;
54923;SDS011;40825;52.270;20.984;2023-07-20T08:19:48;7.00;;;3.00;;
54923;SDS011;40825;52.270;20.984;2023-07-20T08:22:13;6.90;;;3.10;;
54923;SDS011;40825;52.270;20.984;2023-07-20T08:24:39;7.20;;;3.20;;
54923;SDS011;40825;52.270;20.984;2023-07-20T08:27:13;6.80;;;3.90;;
54923;SDS011;40825;52.270;20.984;2023-07-20T08:29:39;10.00;;;4.40;;
54923;SDS011;40825;52.270;20.984;2023-07-20T08:32:05;7.60;;;3.20;;
54923;SDS011;40825;52.270;20.984;2023-07-20T08:34:31;8.10;;;3.20;;
54923;SDS011;40825;52.270;20.984;2023-07-20T08:36:57;7.40;;;2.90;;
54923;SDS011;40825;52.270;20.984;2023-07-20T08:39:24;7.60;;;2.90;;
54923;SDS011;40825;52.270;20.984;2023-07-20T08:41:49;7.40;;;3.40;;
54923;SDS011;40825;52.270;20.984;2023-07-20T08:44:17;6.20;;;3.30;;
54923;SDS011;40825;52.270;20.984;2023-07-20T08:46:42;7.10;;;3.30;;
54923;SDS011;40825;52.270;20.984;2023-07-20T08:49:10;5.80;;;3.00;;
54923;SDS011;40825;52.270;20.984;2023-07-20T08:51:37;8.10;;;4.00;;
54923;SDS011;40825;52.270;20.984;2023-07-20T08:54:03;7.60;;;3.60;;
54923;SDS011;40825;52.270;20.984;2023-07-20T08:56:29;6.80;;;3.40;;
54923;SDS011;40825;52.270;20.984;2023-07-20T08:58:59;7.40;;;4.70;;
54923;SDS011;40825;52.270;20.984;2023-07-20T09:01:26;8.30;;;4.90;;
54923;SDS011;40825;52.270;20.984;2023-07-20T09:03:54;8.40;;;3.60;;
54923;SDS011;40825;52.270;20.984;2023-07-20T09:06:20;8.40;;;3.30;;
54923;SDS011;40825;52.270;20.984;2023-07-20T09:08:46;7.30;;;3.80;;
54923;SDS011;40825;52.270;20.984;2023-07-20T09:11:12;7.50;;;3.20;;
54923;SDS011;40825;52.270;20.984;2023-07-20T09:13:40;6.60;;;3.30;;
54923;SDS011;40825;52.270;20.984;2023-07-20T09:16:06;7.00;;;3.20;;
54923;SDS011;40825;52.270;20.984;2023-07-20T09:18:32;7.40;;;3.00;;
54923;SDS011;40825;52.270;20.984;2023-07-20T09:21:02;7.30;;;3.20;;
54923;SDS011;40825;52.270;20.984;2023-07-20T09:23:35;5.70;;;3.00;;
54923;SDS011;40825;52.270;20.984;2023-07-20T09:26:14;8.00;;;3.50;;
54923;SDS011;40825;52.270;20.984;2023-07-20T09:28:41;7.00;;;3.00;;
54923;SDS011;40825;52.270;20.984;2023-07-20T09:31:18;7.00;;;3.60;;
54923;SDS011;40825;52.270;20.984;2023-07-20T09:33:45;8.40;;;3.50;;
54923;SDS011;40825;52.270;20.984;2023-07-20T09:36:12;8.10;;;3.70;;
54923;SDS011;40825;52.270;20.984;2023-07-20T09:38:39;6.00;;;3.30;;
54923;SDS011;40825;52.270;20.984;2023-07-20T09:41:07;9.10;;;4.20;;
54923;SDS011;40825;52.270;20.984;2023-07-20T09:43:33;7.80;;;4.30;;
54923;SDS011;40825;52.270;20.984;2023-07-20T09:45:59;7.20;;;4.60;;
54923;SDS011;40825;52.270;20.984;2023-07-20T09:48:25;8.30;;;3.60;;
54923;SDS011;40825;52.270;20.984;2023-07-20T09:50:52;7.90;;;3.90;;
54923;SDS011;40825;52.270;20.984;2023-07-20T09:53:18;8.30;;;4.60;;
54923;SDS011;40825;52.270;20.984;2023-07-20T09:55:45;7.60;;;4.10;;
54923;SDS011;40825;52.270;20.984;2023-07-20T09:58:15;9.90;;;4.10;;
54923;SDS011;40825;52.270;20.984;2023-07-20T10:00:41;7.20;;;3.60;;
54923;SDS011;40825;52.270;20.984;2023-07-20T10:03:19;5.70;;;3.00;;
54923;SDS011;40825;52.270;20.984;2023-07-20T10:05:48;5.10;;;3.40;;
54923;SDS011;40825;52.270;20.984;2023-07-20T10:08:29;5.70;;;3.40;;
54923;SDS011;40825;52.270;20.984;2023-07-20T10:10:57;5.70;;;2.50;;
54923;SDS011;40825;52.270;20.984;2023-07-20T10:13:26;5.70;;;2.40;;
54923;SDS011;40825;52.270;20.984;2023-07-20T10:16:03;6.80;;;3.10;;
54923;SDS011;40825;52.270;20.984;2023-07-20T10:21:24;5.50;;;2.10;;
54923;SDS011;40825;52.270;20.984;2023-07-20T10:23:50;4.00;;;2.20;;
54923;SDS011;40825;52.270;20.984;2023-07-20T10:26:16;4.70;;;2.10;;
54923;SDS011;40825;52.270;20.984;2023-07-20T10:28:42;7.90;;;2.90;;
54923;SDS011;40825;52.270;20.984;2023-07-20T10:31:11;7.00;;;3.30;;
54923;SDS011;40825;52.270;20.984;2023-07-20T10:33:38;4.40;;;2.00;;
54923;SDS011;40825;52.270;20.984;2023-07-20T10:36:05;4.60;;;1.60;;
54923;SDS011;40825;52.270;20.984;2023-07-20T10:38:41;4.20;;;1.90;;
54923;SDS011;40825;52.270;20.984;2023-07-20T10:44:19;4.20;;;1.90;;
54923;SDS011;40825;52.270;20.984;2023-07-20T10:46:45;5.30;;;2.00;;
54923;SDS011;40825;52.270;20.984;2023-07-20T10:49:14;4.50;;;2.10;;
54923;SDS011;40825;52.270;20.984;2023-07-20T10:51:41;6.00;;;2.40;;
54923;SDS011;40825;52.270;20.984;2023-07-20T11:01:56;4.90;;;2.10;;
54923;SDS011;40825;52.270;20.984;2023-07-20T11:04:41;4.90;;;2.10;;
54923;SDS011;40825;52.270;20.984;2023-07-20T11:07:08;5.00;;;2.10;;
54923;SDS011;40825;52.270;20.984;2023-07-20T11:09:37;4.30;;;1.70;;
54923;SDS011;40825;52.270;20.984;2023-07-20T11:12:10;5.10;;;1.90;;
54923;SDS011;40825;52.270;20.984;2023-07-20T11:14:42;4.80;;;2.20;;
54923;SDS011;40825;52.270;20.984;2023-07-20T11:17:12;4.80;;;2.20;;
54923;SDS011;40825;52.270;20.984;2023-07-20T11:19:38;3.30;;;1.60;;
54923;SDS011;40825;52.270;20.984;2023-07-20T11:22:05;4.50;;;2.00;;
54923;SDS011;40825;52.270;20.984;2023-07-20T11:24:38;4.20;;;2.00;;
54923;SDS011;40825;52.270;20.984;2023-07-20T11:27:07;5.30;;;2.00;;
54923;SDS011;40825;52.270;20.984;2023-07-20T11:29:34;3.30;;;1.60;;
54923;SDS011;40825;52.270;20.984;2023-07-20T11:32:01;4.50;;;1.50;;
54923;SDS011;40825;52.270;20.984;2023-07-20T11:34:29;3.60;;;1.50;;
54923;SDS011;40825;52.270;20.984;2023-07-20T11:36:56;4.60;;;1.80;;
54923;SDS011;40825;52.270;20.984;2023-07-20T11:39:22;4.60;;;1.70;;
54923;SDS011;40825;52.270;20.984;2023-07-20T11:41:50;3.10;;;1.40;;
54923;SDS011;40825;52.270;20.984;2023-07-20T11:44:17;3.30;;;1.30;;
54923;SDS011;40825;52.270;20.984;2023-07-20T11:46:44;2.70;;;1.50;;
54923;SDS011;40825;52.270;20.984;2023-07-20T11:49:13;3.90;;;1.60;;
54923;SDS011;40825;52.270;20.984;2023-07-20T11:51:39;4.50;;;1.80;;
54923;SDS011;40825;52.270;20.984;2023-07-20T11:54:07;3.70;;;1.60;;
54923;SDS011;40825;52.270;20.984;2023-07-20T11:56:34;3.00;;;1.10;;
54923;SDS011;40825;52.270;20.984;2023-07-20T11:59:00;3.90;;;1.20;;
54923;SDS011;40825;52.270;20.984;2023-07-20T12:01:27;3.20;;;1.40;;
54923;SDS011;40825;52.270;20.984;2023-07-20T12:03:55;3.40;;;1.50;;
54923;SDS011;40825;52.270;20.984;2023-07-20T12:06:25;3.30;;;1.30;;
54923;SDS011;40825;52.270;20.984;2023-07-20T12:08:54;3.30;;;1.50;;
54923;SDS011;40825;52.270;20.984;2023-07-20T12:11:31;2.30;;;1.10;;
54923;SDS011;40825;52.270;20.984;2023-07-20T12:13:58;3.90;;;1.30;;
54923;SDS011;40825;52.270;20.984;2023-07-20T12:16:26;2.20;;;1.00;;
54923;SDS011;40825;52.270;20.984;2023-07-20T12:19:00;4.20;;;1.10;;
54923;SDS011;40825;52.270;20.984;2023-07-20T12:21:27;3.00;;;1.10;;
54923;SDS011;40825;52.270;20.984;2023-07-20T12:23:55;2.70;;;1.20;;
54923;SDS011;40825;52.270;20.984;2023-07-20T12:26:22;3.50;;;1.50;;
54923;SDS011;40825;52.270;20.984;2023-07-20T12:28:49;3.50;;;1.20;;
54923;SDS011;40825;52.270;20.984;2023-07-20T12:31:15;3.30;;;1.30;;
54923;SDS011;40825;52.270;20.984;2023-07-20T12:33:40;2.60;;;1.70;;
54923;SDS011;40825;52.270;20.984;2023-07-20T12:36:08;3.10;;;1.20;;
54923;SDS011;40825;52.270;20.984;2023-07-20T12:38:34;4.60;;;1.70;;
54923;SDS011;40825;52.270;20.984;2023-07-20T12:41:01;4.20;;;2.10;;
54923;SDS011;40825;52.270;20.984;2023-07-20T12:43:27;3.50;;;1.30;;
54923;SDS011;40825;52.270;20.984;2023-07-20T12:45:53;3.80;;;1.20;;
54923;SDS011;40825;52.270;20.984;2023-07-20T12:48:18;4.50;;;1.10;;
54923;SDS011;40825;52.270;20.984;2023-07-20T12:50:44;2.70;;;1.00;;
54923;SDS011;40825;52.270;20.984;2023-07-20T12:53:10;3.40;;;1.20;;
54923;SDS011;40825;52.270;20.984;2023-07-20T12:55:35;3.10;;;1.20;;
54923;SDS011;40825;52.270;20.984;2023-07-20T12:58:02;3.80;;;1.30;;
54923;SDS011;40825;52.270;20.984;2023-07-20T13:00:28;4.30;;;1.40;;
54923;SDS011;40825;52.270;20.984;2023-07-20T13:02:54;2.70;;;1.30;;
54923;SDS011;40825;52.270;20.984;2023-07-20T13:05:19;4.70;;;1.90;;
54923;SDS011;40825;52.270;20.984;2023-07-20T13:07:45;3.70;;;1.40;;
54923;SDS011;40825;52.270;20.984;2023-07-20T13:10:11;3.60;;;1.80;;
54923;SDS011;40825;52.270;20.984;2023-07-20T13:12:37;3.80;;;1.50;;
54923;SDS011;40825;52.270;20.984;2023-07-20T13:15:04;3.00;;;1.30;;
54923;SDS011;40825;52.270;20.984;2023-07-20T13:17:34;2.30;;;1.20;;
54923;SDS011;40825;52.270;20.984;2023-07-20T13:20:01;2.80;;;1.10;;
54923;SDS011;40825;52.270;20.984;2023-07-20T13:22:31;5.70;;;1.50;;
54923;SDS011;40825;52.270;20.984;2023-07-20T13:24:57;2.00;;;0.90;;
54923;SDS011;40825;52.270;20.984;2023-07-20T13:27:23;2.90;;;1.30;;
54923;SDS011;40825;52.270;20.984;2023-07-20T13:29:52;2.80;;;1.40;;
54923;SDS011;40825;52.270;20.984;2023-07-20T13:32:18;4.20;;;1.90;;
54923;SDS011;40825;52.270;20.984;2023-07-20T13:34:44;2.80;;;1.20;;
54923;SDS011;40825;52.270;20.984;2023-07-20T13:37:10;3.00;;;1.30;;
54923;SDS011;40825;52.270;20.984;2023-07-20T13:39:36;2.40;;;1.40;;
54923;SDS011;40825;52.270;20.984;2023-07-20T13:42:07;3.30;;;1.20;;
54923;SDS011;40825;52.270;20.984;2023-07-20T13:44:34;3.40;;;1.40;;
54923;SDS011;40825;52.270;20.984;2023-07-20T13:47:03;4.30;;;1.80;;
54923;SDS011;40825;52.270;20.984;2023-07-20T13:49:30;4.40;;;1.90;;
54923;SDS011;40825;52.270;20.984;2023-07-20T13:51:57;5.60;;;1.90;;
54923;SDS011;40825;52.270;20.984;2023-07-20T13:54:23;5.30;;;2.30;;
54923;SDS011;40825;52.270;20.984;2023-07-20T13:56:53;5.50;;;3.20;;
54923;SDS011;40825;52.270;20.984;2023-07-20T13:59:21;4.60;;;2.40;;
54923;SDS011;40825;52.270;20.984;2023-07-20T14:01:46;5.40;;;2.60;;
54923;SDS011;40825;52.270;20.984;2023-07-20T14:04:12;5.60;;;2.50;;
54923;SDS011;40825;52.270;20.984;2023-07-20T14:06:38;5.30;;;2.40;;
54923;SDS011;40825;52.270;20.984;2023-07-20T14:09:04;6.30;;;2.20;;
54923;SDS011;40825;52.270;20.984;2023-07-20T14:11:29;4.10;;;1.90;;
54923;SDS011;40825;52.270;20.984;2023-07-20T14:13:55;4.60;;;2.00;;
54923;SDS011;40825;52.270;20.984;2023-07-20T14:16:21;5.70;;;2.10;;
54923;SDS011;40825;52.270;20.984;2023-07-20T14:18:47;5.20;;;2.00;;
54923;SDS011;40825;52.270;20.984;2023-07-20T14:21:17;4.70;;;2.10;;
54923;SDS011;40825;52.270;20.984;2023-07-20T14:23:48;4.10;;;2.30;;
54923;SDS011;40825;52.270;20.984;2023-07-20T14:26:16;6.50;;;2.10;;
54923;SDS011;40825;52.270;20.984;2023-07-20T14:28:41;4.90;;;1.70;;
54923;SDS011;40825;52.270;20.984;2023-07-20T14:31:07;3.50;;;1.70;;
54923;SDS011;40825;52.270;20.984;2023-07-20T14:33:33;5.50;;;1.90;;
54923;SDS011;40825;52.270;20.984;2023-07-20T14:35:59;4.30;;;1.50;;
54923;SDS011;40825;52.270;20.984;2023-07-20T14:38:26;5.60;;;1.60;;
54923;SDS011;40825;52.270;20.984;2023-07-20T14:40:53;2.70;;;1.30;;
54923;SDS011;40825;52.270;20.984;2023-07-20T14:43:19;3.60;;;1.00;;
54923;SDS011;40825;52.270;20.984;2023-07-20T14:45:45;2.70;;;0.80;;
54923;SDS011;40825;52.270;20.984;2023-07-20T14:48:10;2.50;;;0.80;;
54923;SDS011;40825;52.270;20.984;2023-07-20T14:50:36;6.80;;;1.30;;
54923;SDS011;40825;52.270;20.984;2023-07-20T14:53:02;1.40;;;0.60;;
54923;SDS011;40825;52.270;20.984;2023-07-20T14:55:28;1.60;;;0.60;;
54923;SDS011;40825;52.270;20.984;2023-07-20T14:57:54;2.60;;;0.90;;
54923;SDS011;40825;52.270;20.984;2023-07-20T15:00:19;3.00;;;0.80;;
54923;SDS011;40825;52.270;20.984;2023-07-20T15:02:45;1.70;;;0.70;;
54923;SDS011;40825;52.270;20.984;2023-07-20T15:05:11;2.90;;;0.60;;
54923;SDS011;40825;52.270;20.984;2023-07-20T15:07:37;1.20;;;0.50;;
54923;SDS011;40825;52.270;20.984;2023-07-20T15:10:05;2.30;;;0.50;;
54923;SDS011;40825;52.270;20.984;2023-07-20T15:12:32;1.80;;;0.60;;
54923;SDS011;40825;52.270;20.984;2023-07-20T15:15:07;2.60;;;0.90;;
54923;SDS011;40825;52.270;20.984;2023-07-20T15:17:35;4.20;;;1.10;;
54923;SDS011;40825;52.270;20.984;2023-07-20T15:20:05;2.00;;;0.80;;
54923;SDS011;40825;52.270;20.984;2023-07-20T15:22:35;2.20;;;0.80;;
54923;SDS011;40825;52.270;20.984;2023-07-20T15:25:04;2.50;;;1.00;;
54923;SDS011;40825;52.270;20.984;2023-07-20T15:27:32;2.60;;;0.80;;
54923;SDS011;40825;52.270;20.984;2023-07-20T15:29:58;1.50;;;0.70;;
54923;SDS011;40825;52.270;20.984;2023-07-20T15:32:24;1.70;;;0.60;;
54923;SDS011;40825;52.270;20.984;2023-07-20T15:34:50;2.00;;;0.40;;
54923;SDS011;40825;52.270;20.984;2023-07-20T15:37:15;2.30;;;0.80;;